createdAt,value
2018-11-22T12:17:58.679Z,7.90
2018-11-22T12:20:28.082Z,8.10
2018-11-22T12:22:58.280Z,8.40
2018-11-22T12:25:28.405Z,9.20
2018-11-22T12:27:59.261Z,10.00
2018-11-22T12:30:30.651Z,10.80
2018-11-22T12:33:05.230Z,11.10
2018-11-22T12:35:39.720Z,10.50
2018-11-22T12:38:17.152Z,10.40
2018-11-22T12:40:46.165Z,10.50
2018-11-22T12:43:15.410Z,10.50
2018-11-22T12:45:45.384Z,10.60
2018-11-22T12:48:14.682Z,10.40
2018-11-22T12:50:43.937Z,10.20
2018-11-22T12:53:13.197Z,10.00
2018-11-22T12:55:42.433Z,10.30
2018-11-22T12:58:11.933Z,10.50
2018-11-22T13:00:41.291Z,11.10
2018-11-22T13:03:11.364Z,11.40
2018-11-22T13:05:47.855Z,11.60
2018-11-22T13:08:22.262Z,11.50
2018-11-22T13:10:59.774Z,12.00
2018-11-22T13:13:29.163Z,12.20
2018-11-22T13:15:58.512Z,12.00
2018-11-22T13:21:36.097Z,12.30
2018-11-22T13:24:05.743Z,12.40
2018-11-22T13:26:36.013Z,12.30
2018-11-22T13:29:05.280Z,12.30
2018-11-22T13:31:34.463Z,12.10
2018-11-22T13:34:03.516Z,11.80
2018-11-22T13:36:32.975Z,11.80
2018-11-22T13:39:02.332Z,11.80
2018-11-22T13:41:31.619Z,11.70
2018-11-22T13:44:00.777Z,11.60
2018-11-22T13:46:30.077Z,11.30
2018-11-22T13:48:59.310Z,11.00
2018-11-22T13:51:28.646Z,10.60
2018-11-22T13:53:57.979Z,10.20
2018-11-22T13:56:27.287Z,10.00
2018-11-22T13:58:56.420Z,9.70
2018-11-22T14:01:25.579Z,9.50
2018-11-22T14:03:54.797Z,9.30
2018-11-22T14:06:23.815Z,9.30
2018-11-22T14:08:52.947Z,9.20
2018-11-22T14:11:23.908Z,9.10
2018-11-22T14:14:00.919Z,8.90
2018-11-22T14:16:30.591Z,8.80
2018-11-22T14:19:01.965Z,8.70
2018-11-22T14:21:33.606Z,8.60
2018-11-22T14:24:02.964Z,8.50
2018-11-22T14:26:32.316Z,8.30
2018-11-22T14:29:01.963Z,8.20
2018-11-22T14:31:31.195Z,8.30
2018-11-22T14:34:00.532Z,8.30
2018-11-22T14:36:33.421Z,8.30
2018-11-22T14:39:03.199Z,8.20
2018-11-22T14:41:32.842Z,8.00
2018-11-22T14:44:02.338Z,8.00
2018-11-22T14:46:31.813Z,7.90
2018-11-22T14:49:01.021Z,7.90
2018-11-22T14:51:36.768Z,7.80
2018-11-22T14:54:06.745Z,7.70
2018-11-22T14:56:36.291Z,7.60
2018-11-22T14:59:06.859Z,7.50
2018-11-22T15:01:37.262Z,7.40
2018-11-22T15:04:06.692Z,7.20
2018-11-22T15:06:35.895Z,7.10
2018-11-22T15:09:06.942Z,7.00
2018-11-22T15:11:36.185Z,6.90
2018-11-22T15:14:06.076Z,6.80
2018-11-22T15:16:35.461Z,6.70
2018-11-22T15:19:04.847Z,6.60
2018-11-22T15:21:34.201Z,6.60
2018-11-22T15:24:03.419Z,6.50
2018-11-22T15:26:32.682Z,6.50
2018-11-22T15:29:01.889Z,6.40
2018-11-22T15:31:30.992Z,6.30
2018-11-22T15:34:00.375Z,6.20
2018-11-22T15:36:29.700Z,6.20
2018-11-22T15:38:59.015Z,6.10
2018-11-22T15:41:28.381Z,6.10
2018-11-22T15:43:57.544Z,6.00
2018-11-22T15:46:26.620Z,6.00
2018-11-22T15:48:55.765Z,5.90
2018-11-22T15:51:25.052Z,5.90
2018-11-22T15:53:54.263Z,5.80
2018-11-22T15:56:24.305Z,5.80
2018-11-22T15:58:53.663Z,5.70
2018-11-22T16:01:22.890Z,5.60
2018-11-22T16:03:52.292Z,5.60
2018-11-22T16:06:21.523Z,5.60
2018-11-22T16:08:50.860Z,5.60
2018-11-22T16:11:19.916Z,5.50
2018-11-22T16:13:48.916Z,5.50
2018-11-22T16:16:18.199Z,5.50
2018-11-22T16:18:47.339Z,5.40
2018-11-22T16:21:16.457Z,5.40
2018-11-22T16:23:45.671Z,5.30
2018-11-22T16:26:14.903Z,5.30
2018-11-22T16:28:44.329Z,5.30
2018-11-22T16:31:14.254Z,5.30
2018-11-22T16:33:43.687Z,5.20
2018-11-22T16:36:13.707Z,5.20
2018-11-22T16:38:42.963Z,5.10
2018-11-22T16:41:12.577Z,5.10
2018-11-22T16:43:42.463Z,5.10
2018-11-22T16:46:11.664Z,5.00
2018-11-22T16:48:41.177Z,5.00
2018-11-22T16:51:10.572Z,5.00
2018-11-22T16:53:39.850Z,4.90
2018-11-22T16:56:09.008Z,4.90
2018-11-22T16:58:38.100Z,4.90
2018-11-22T17:01:07.532Z,4.80
2018-11-22T17:03:37.132Z,4.80
2018-11-22T17:06:06.638Z,4.80
2018-11-22T17:08:35.890Z,4.80
2018-11-22T17:11:05.084Z,4.80
2018-11-22T17:13:34.710Z,4.70
2018-11-22T17:16:03.937Z,4.70
2018-11-22T17:18:33.283Z,4.70
2018-11-22T17:21:02.524Z,4.70
2018-11-22T17:23:32.242Z,4.80
2018-11-22T17:26:01.461Z,4.80
2018-11-22T17:28:30.727Z,4.80
2018-11-22T17:30:59.965Z,4.80
2018-11-22T17:33:29.281Z,4.80
2018-11-22T17:35:58.405Z,4.80
2018-11-22T17:38:27.552Z,4.90
2018-11-22T17:40:56.688Z,4.90
2018-11-22T17:43:25.768Z,4.90
2018-11-22T17:45:54.865Z,4.90
2018-11-22T17:48:23.946Z,4.90
2018-11-22T17:50:53.511Z,4.90
2018-11-22T17:53:22.546Z,5.00
2018-11-22T17:55:51.818Z,4.90
2018-11-22T17:58:21.253Z,5.00
2018-11-22T18:00:52.606Z,5.00
2018-11-22T18:03:22.003Z,5.00
2018-11-22T18:05:51.450Z,5.00
2018-11-22T18:08:20.820Z,4.90
2018-11-22T18:10:49.726Z,4.90
2018-11-22T18:13:18.883Z,4.90
2018-11-22T18:15:54.108Z,4.90
2018-11-22T18:18:23.998Z,4.80
2018-11-22T18:20:53.176Z,4.80
2018-11-22T18:23:22.294Z,4.80
2018-11-22T18:25:51.466Z,4.80
2018-11-22T18:28:20.770Z,4.70
2018-11-22T18:30:49.908Z,4.70
2018-11-22T18:33:18.940Z,4.70
2018-11-22T18:35:48.125Z,4.70
2018-11-22T18:38:17.114Z,4.60
2018-11-22T18:40:46.305Z,4.60
2018-11-22T18:43:15.717Z,4.60
2018-11-22T18:45:45.884Z,4.60
2018-11-22T18:48:16.308Z,4.60
2018-11-22T18:50:46.949Z,4.60
2018-11-22T18:53:15.190Z,4.60
2018-11-22T18:55:44.361Z,4.50
2018-11-22T18:58:13.532Z,4.60
2018-11-22T19:00:44.206Z,4.60
2018-11-22T19:03:14.966Z,4.60
2018-11-22T19:05:44.211Z,4.60
2018-11-22T19:08:13.296Z,4.60
2018-11-22T19:10:43.349Z,4.60
2018-11-22T19:13:13.263Z,4.60
2018-11-22T19:15:44.034Z,4.60
2018-11-22T19:18:13.819Z,4.60
2018-11-22T19:20:43.708Z,4.60
2018-11-22T19:23:13.149Z,4.60
2018-11-22T19:25:42.295Z,4.60
2018-11-22T19:28:11.527Z,4.60
2018-11-22T19:30:42.117Z,4.60
2018-11-22T19:33:12.825Z,4.60
2018-11-22T19:35:43.482Z,4.60
2018-11-22T19:38:12.684Z,4.60
2018-11-22T19:40:42.601Z,4.60
2018-11-22T19:43:11.955Z,4.60
2018-11-22T19:45:42.491Z,4.60
2018-11-22T19:48:11.697Z,4.60
2018-11-22T19:50:40.882Z,4.60
2018-11-22T19:53:11.576Z,4.50
2018-11-22T19:55:41.090Z,4.50
2018-11-22T19:58:11.583Z,4.40
2018-11-22T20:00:40.640Z,4.40
2018-11-22T20:03:10.165Z,4.40
2018-11-22T20:05:41.266Z,4.30
2018-11-22T20:08:12.216Z,4.30
2018-11-22T20:10:42.640Z,4.20
2018-11-22T20:13:11.907Z,4.20
2018-11-22T20:15:40.974Z,4.10
2018-11-22T20:18:16.639Z,4.00
2018-11-22T20:20:50.031Z,4.00
2018-11-22T20:23:21.254Z,3.90
2018-11-22T20:25:44.330Z,3.90
2018-11-22T20:28:13.573Z,3.80
2018-11-22T20:30:44.281Z,3.70
2018-11-22T20:33:13.277Z,3.70
2018-11-22T20:35:42.548Z,3.70
2018-11-22T20:38:12.842Z,3.60
2018-11-22T20:40:41.848Z,3.60
2018-11-22T20:43:10.943Z,3.60
2018-11-22T20:45:40.925Z,3.50
2018-11-22T20:48:09.166Z,3.50
2018-11-22T20:50:38.648Z,3.50
2018-11-22T20:53:07.847Z,3.50
2018-11-22T20:55:38.121Z,3.40
2018-11-22T20:58:07.808Z,3.40
2018-11-22T21:00:39.699Z,3.40
2018-11-22T21:03:08.787Z,3.30
2018-11-22T21:05:37.834Z,3.30
2018-11-22T21:08:07.591Z,3.30
2018-11-22T21:10:36.809Z,3.30
2018-11-22T21:13:06.110Z,3.20
2018-11-22T21:15:36.119Z,3.20
2018-11-22T21:18:06.483Z,3.20
2018-11-22T21:20:38.041Z,3.20
2018-11-22T21:23:07.167Z,3.10
2018-11-22T21:25:36.243Z,3.10
2018-11-22T21:28:05.850Z,3.10
2018-11-22T21:30:36.285Z,3.10
2018-11-22T21:33:05.458Z,3.10
2018-11-22T21:35:35.003Z,3.10
2018-11-22T21:38:05.953Z,3.10
2018-11-22T21:40:35.348Z,3.00
2018-11-22T21:43:04.562Z,3.00
2018-11-22T21:45:35.339Z,3.00
2018-11-22T21:48:04.340Z,3.00
2018-11-22T21:50:33.373Z,3.00
2018-11-22T21:53:02.484Z,3.00
2018-11-22T21:55:31.644Z,3.00
2018-11-22T21:58:01.846Z,3.00
2018-11-22T22:00:35.861Z,2.90
2018-11-22T22:03:06.574Z,2.90
2018-11-22T22:05:36.075Z,2.90
2018-11-22T22:08:05.127Z,2.90
2018-11-22T22:10:34.251Z,2.80
2018-11-22T22:13:03.791Z,2.90
2018-11-22T22:15:33.932Z,2.80
2018-11-22T22:18:03.039Z,2.80
2018-11-22T22:20:33.605Z,2.80
2018-11-22T22:23:02.844Z,2.80
2018-11-22T22:25:32.485Z,2.80
2018-11-22T22:28:01.963Z,2.80
2018-11-22T22:30:33.398Z,2.70
2018-11-22T22:33:05.069Z,2.70
2018-11-22T22:35:34.249Z,2.70
2018-11-22T22:38:03.523Z,2.70
2018-11-22T22:40:33.723Z,2.60
2018-11-22T22:43:02.762Z,2.60
2018-11-22T22:45:33.210Z,2.60
2018-11-22T22:48:02.569Z,2.60
2018-11-22T22:50:32.243Z,2.60
2018-11-22T22:53:02.008Z,2.60
2018-11-22T22:55:31.446Z,2.60
2018-11-22T22:58:00.762Z,2.60
2018-11-22T23:00:35.139Z,2.60
2018-11-22T23:03:06.951Z,2.50
2018-11-22T23:05:36.525Z,2.50
2018-11-22T23:08:05.803Z,2.50
2018-11-22T23:10:34.843Z,2.50
2018-11-22T23:13:03.884Z,2.50
2018-11-22T23:15:33.166Z,2.50
2018-11-22T23:18:02.161Z,2.50
2018-11-22T23:20:32.621Z,2.50
2018-11-22T23:23:01.887Z,2.50
2018-11-22T23:25:31.574Z,2.50
2018-11-22T23:28:00.767Z,2.40
2018-11-22T23:30:31.329Z,2.40
2018-11-22T23:33:02.550Z,2.40
2018-11-22T23:35:31.561Z,2.40
2018-11-22T23:38:00.679Z,2.40
2018-11-22T23:40:31.204Z,2.40
2018-11-22T23:43:00.199Z,2.40
2018-11-22T23:45:30.569Z,2.40
2018-11-22T23:48:00.592Z,2.40
2018-11-22T23:50:31.723Z,2.40
2018-11-22T23:53:01.614Z,2.30
2018-11-22T23:55:30.979Z,2.40
2018-11-22T23:57:59.922Z,2.30
